Home > Products > Valid Products > TAF

000
FTUS46 KHNX 301738
TAFMCE
TAF
KMCE 301738Z 3018/3118 VRB03KT 1/4SM FG VV001
     FM302100 VRB04KT 1 1/2SM BR BKN005
     FM302300 29005KT 3SM HZ SKC
     FM310400 VRB03KT 1SM BR BKN005
      TEMPO 3104/3106 1/2SM FG VV003
     FM310600 00000KT 1/4SM FG VV001=



000
FTUS46 KHNX 301738
TAFBFL
TAF
KBFL 301738Z 3018/3118 00000KT 1/4SM FG OVC002
     FM301900 VRB04KT 1 1/2SM BR BKN005
     FM302100 31005KT 4SM HZ BKN150
     FM310600 00000KT 1 1/2SM BR SKC
     FM311500 00000KT 1/2SM FG OVC002=



000
FTUS46 KHNX 301738
TAFFAT
TAF
KFAT 301738Z 3018/3118 VRB03KT 1SM BR BKN004
     FM302000 VRB04KT 3SM HZ SCT150
     FM310600 00000KT 1 1/2SM BR SCT003
      TEMPO 3106/3110 1/2SM FG BKN002=



000
FTUS46 KHNX 301738
TAFFAT
TAF

FM311000
 00000KT 1/4SM FG VV001=



000
FTUS46 KHNX 301549 AAB
TAFBFL
TAF AMD
KBFL 301549Z 3016/3112 00000KT 1 1/2SM BR BKN004
      TEMPO 3016/3018 1SM BR
     FM301900 VRB04KT 3SM BR SCT110
     FM302100 31005KT 4SM HZ BKN250
     FM310500 VRB03KT 3SM BR SCT250
     FM310800 00000KT 1 1/2SM BR SKC
      TEMPO 3108/3112 3/4SM BR=



000
FTUS46 KHNX 301512 AAA
TAFBFL
TAF AMD
KBFL 301512Z 3015/3112 00000KT 2SM BR BKN110
      TEMPO 3015/3018 1SM BR SCT006
     FM301900 VRB04KT 3SM BR SCT110
     FM302100 31005KT 4SM HZ BKN250
     FM310500 VRB03KT 3SM BR SCT250
     FM310800 00000KT 1 1/2SM BR SKC
      TEMPO 3108/3112 3/4SM BR=



000
FTUS46 KHNX 301152 CCA
TAFMCE
TAF COR
KMCE 301152Z 3012/3112 00000KT 3/4SM BR OVC002
      TEMPO 3012/3016 1/4SM FG OVC001
     FM302000 VRB04KT 3SM BR BKN005
     FM302300 29005KT 4SM HZ SCT005
     FM310400 VRB03KT 1SM BR BKN005
      TEMPO 3104/3106 1/2SM FG VV003
     FM310600 00000KT 1/4SM FG VV001=



000
FTUS46 KHNX 301150
TAFFAT
TAF
KFAT 301150Z 3012/3112 VRB03KT 1/4SM FG VV001
     FM301800 VRB03KT 1SM BR OVC004
     FM301900 VRB04KT 2SM BR OVC005
     FM302100 VRB03KT 4SM HZ SCT200
     FM310500 00000KT 3SM BR FEW200
     FM310800 00000KT 1 1/2SM BR SCT003
     FM311000 00000KT 1/2SM FG BKN002
      TEMPO 3110/3112 1/4SM FG VV001=



000
FTUS46 KHNX 301150
TAFMCE
TAF
KMCE 301150Z 3012/3112 00000KT 2SM BR OVC002
      TEMPO 3012/3016 3/4SM BR OVC001
     FM302000 VRB04KT 3SM BR BKN005
     FM302300 29005KT 4SM HZ SCT005
     FM310400 VRB03KT 1SM BR BKN005
      TEMPO 3104/3106 1/2SM FG VV003
     FM310600 00000KT 1/4SM FG VV001=



000
FTUS46 KHNX 301150
TAFBFL
TAF
KBFL 301150Z 3012/3112 35004KT 2SM BR SCT110
      TEMPO 3013/3017 1SM BR SCT006
     FM301800 VRB04KT 2SM BR SCT006
     FM302100 31005KT 4SM HZ BKN250
     FM310500 VRB03KT 3SM BR SCT250
     FM310800 00000KT 1 1/2SM BR SKC
      TEMPO 3108/3112 3/4SM BR=



000
FTUS46 KHNX 300945 AAB
TAFFAT
TAF AMD
KFAT 300945Z 3010/3106 00000KT 1 1/2SM BR SCT150 OVC200
      TEMPO 3010/3012 3/4SM BR VV012
     FM301200 VRB03KT 1/2SM FG VV002
     FM301800 32004KT 1SM BR OVC004
     FM302100 23003KT 4SM HZ SCT200=



000
FTUS46 KHNX 300937 AAA
TAFBFL
TAF AMD
KBFL 300937Z 3010/3106 00000KT 3SM BR SCT100 BKN200
      TEMPO 3012/3015 1 1/2SM BR
     FM301500 09004KT 1SM BR BKN006
     FM301800 24003KT 2SM BR SCT006
     FM302100 31004KT 4SM HZ BKN250=



000
FTUS46 KHNX 300935 AAA
TAFFAT
TAF AMD
KFAT 300935Z 3010/3106 VRB03KT 1 1/2SM BR SCT150 OVC200
      TEMPO 3010/3012 3/4SM BR VV002
     FM301200 VRB03KT 1/2SM FG VV002
     FM301800 32004KT 1SM BR OVC004
     FM302100 23003KT 4SM HZ SCT200=



000
FTUS46 KHNX 300530
TAFMCE
TAF
KMCE 300530Z 3006/3106 00000KT 1/4SM FG VV003
      TEMPO 3018/3021 2SM BR BKN005
     FM302100 32004KT 2SM BR BKN005
     FM302300 29005KT 4SM HZ SCT005
     FM310400 VRB03KT 1SM BR BKN005
      TEMPO 3104/3106 1/2SM FG VV003=



000
FTUS46 KHNX 300530
TAFBFL
TAF
KBFL 300530Z 3006/3106 00000KT 5SM HZ BKN120
     FM301500 09004KT 1SM BR BKN006
     FM301800 24003KT 2SM BR SCT006
     FM302100 31004KT 4SM HZ BKN250=



000
FTUS46 KHNX 300530
TAFFAT
TAF
KFAT 300530Z 3006/3106 33003KT 4SM BR SCT200
     FM300900 VRB03KT 2SM BR SCT200
      TEMPO 3009/3011 1/4SM FG VV002
     FM301100 VRB03KT 1/2SM FG VV002
     FM301800 32004KT 1SM BR OVC004
     FM302100 23003KT 4SM HZ SCT200=



000
FTUS46 KHNX 300412 AAA
TAFMCE
TAF AMD
KMCE 300412Z 3004/3024 33005KT 2SM BR VV006
     FM300600 VRB03KT 1/4SM FG VV002
     FM301900 32004KT 1/2SM FG OVC003
     FM302100 29005KT 4SM HZ SCT005=



000
FTUS46 KHNX 292337
TAFBFL
TAF
KBFL 292337Z 3000/3024 36005KT 4SM HZ FEW020 OVC150
     FM300600 VRB03KT 2SM BR BKN007 BKN150
     FM301500 09004KT 1 1/2SM BR BKN007
     FM301800 24003KT 2SM BR BKN250
     FM302100 31004KT 4SM HZ BKN250=



000
FTUS46 KHNX 292337
TAFFAT
TAF
KFAT 292337Z 3000/3024 29005KT 4SM HZ BKN200
     FM300600 VRB03KT 2SM BR SCT150
     FM301000 VRB03KT 1/2SM FG VV002
     FM301800 32004KT 1SM BR OVC004
     FM302100 23003KT 4SM HZ SCT200=



000
FTUS46 KHNX 292337
TAFMCE
TAF
KMCE 292337Z 3000/3024 33005KT 3SM HZ SKC
     FM300300 VRB03KT 2SM BR SKC
     FM300600 VRB03KT 1/4SM FG VV002
     FM301900 32004KT 1/2SM FG OVC003
     FM302100 29005KT 4SM HZ SCT005=



000
FTUS46 KHNX 292010 AAA
TAFMCE
TAF AMD
KMCE 292010Z 2920/3018 VRB03KT 1/4SM FG OVC002
     FM292100 VRB03KT 1SM BR SCT005 SCT150
     FM292200 33005KT 4SM HZ FEW150
     FM300300 VRB03KT 2SM BR FEW150
     FM300600 VRB03KT 1/4SM FG VV002=



000
FTUS46 KHNX 291728
TAFBFL
TAF
KBFL 291728Z 2918/3018 00000KT 1 1/2SM BR SCT015 OVC150
     FM292000 29005KT 4SM HZ FEW020 OVC150
     FM300600 VRB03KT 2SM BR BKN007 BKN150=



000
FTUS46 KHNX 291728
TAFFAT
TAF
KFAT 291728Z 2918/3018 00000KT 1/4SM FG VV002
     FM291900 VRB03KT 1/2SM FG BKN005
     FM292000 VRB03KT 2SM BR SCT005 BKN150
     FM292100 29005KT 4SM HZ BKN150
     FM300600 VRB03KT 2SM BR BKN150
     FM301000 VRB03KT 1/2SM FG VV002=



000
FTUS46 KHNX 291728
TAFMCE
TAF
KMCE 291728Z 2918/3018 VRB03KT 1/4SM FG VV002
      TEMPO 2918/2920 1SM BR BKN004
     FM292000 VRB03KT 2SM BR SCT005 BKN150
     FM292100 33005KT 4SM HZ BKN150
     FM300300 VRB03KT 2SM BR SCT150
     FM300600 VRB03KT 1/4SM FG VV002=



000
FTUS46 KHNX 291626 AAA
TAFBFL
TAF AMD
KBFL 291626Z 2916/3012 VRB03KT 1 1/2SM BR BKN004 OVC015
     FM291900 29005KT 4SM HZ SCT015 BKN120
      TEMPO 3010/3012 2SM BR=



000
FTUS46 KHNX 291122
TAFMCE
TAF
KMCE 291122Z 2912/3012 14003KT 1/4SM FG VV002
      TEMPO 2917/2919 1SM BR BKN005
     FM291900 00000KT 2SM BR BKN005
     FM292000 VRB03KT 2SM BR SCT005 BKN200
     FM292100 33005KT 4SM HZ BKN200
     FM300300 VRB03KT 2SM BR SCT200
     FM300600 VRB03KT 1/4SM FG VV002=



000
FTUS46 KHNX 291122
TAFBFL
TAF
KBFL 291122Z 2912/3012 10005KT 2SM BR BKN010
     FM291800 29005KT 4SM HZ SCT015 BKN120
      TEMPO 3010/3012 2SM BR=



000
FTUS46 KHNX 291122
TAFFAT
TAF
KFAT 291122Z 2912/3012 00000KT 1/4SM FG VV001
     FM291800 VRB03KT 1/2SM FG BKN005
     FM292000 VRB03KT 2SM BR SCT005 BKN100
     FM292100 29005KT 4SM HZ BKN120
     FM300600 VRB03KT 2SM BR BKN150
     FM301000 VRB03KT 1/2SM FG VV002=



000
FTUS46 KHNX 290535
TAFFAT
TAF
KFAT 290535Z 2906/3006 00000KT 4SM BR FEW060 FEW130
     FM290800 00000KT 1SM BR SCT002
      TEMPO 2909/2912 1/2SM FG VV002
     FM291200 00000KT 1/2SM FG VV001
     FM291700 00000KT 2SM BR BKN005
     FM291900 VRB03KT 2SM BR SCT005 BKN200
     FM292100 29005KT 4SM HZ BKN200=



000
FTUS46 KHNX 290535
TAFMCE
TAF
KMCE 290535Z 2906/3006 14003KT 1/4SM FG VV001
      TEMPO 2917/2919 1SM BR BKN005
     FM291900 00000KT 2SM BR BKN005
     FM292000 VRB03KT 2SM BR SCT005 BKN200
     FM292100 33005KT 4SM HZ BKN200=



000
FTUS46 KHNX 290535
TAFBFL
TAF
KBFL 290535Z 2906/3006 33003KT 5SM HZ OVC015
     FM291000 10005KT 2SM BR BKN010
     FM291800 29005KT 4SM HZ SCT015 BKN200=



000
FTUS46 KHNX 282332 CCA
TAFBFL
TAF COR
KBFL 282332Z 2900/2924 VRB03KT 6SM HZ BKN023 BKN028
     FM290300 35005KT 4SM HZ SCT035 BKN200
      TEMPO 2905/2908 BKN035
     FM290800 10005KT 3SM BR BKN035
     FM291600 29005KT 5SM HZ SCT035 BKN200=



000
FTUS46 KHNX 282328
TAFBFL
TAF
KBFL 282328Z 2900/2924 28005KT 6SM HZ FEW017 SCT029
     FM290300 35005KT 4SM HZ SCT035 BKN200
      TEMPO 2905/2908 BKN035
     FM290800 10005KT 3SM BR BKN035
     FM291600 29005KT 5SM HZ SCT035 BKN200=



000
FTUS46 KHNX 282328
TAFFAT
TAF
KFAT 282328Z 2900/2924 00000KT 6SM HZ FEW070 BKN200
     FM290600 VRB03KT 3SM BR BKN200
     FM290800 00000KT 1SM BR SCT002
      TEMPO 2909/2912 1/2SM FG VV002
     FM291200 00000KT 1/2SM FG VV001
     FM291700 00000KT 2SM BR BKN005
     FM291900 VRB03KT 2SM BR SCT005 BKN200
     FM292100 29005KT 4SM HZ BKN200=



000
FTUS46 KHNX 282328
TAFMCE
TAF
KMCE 282328Z 2900/2924 00000KT P6SM SCT200
     FM290600 VRB03KT 1SM BR FEW001 BKN200
      TEMPO 2908/2910 1/2SM FG VV001
     FM291000 00000KT 1/2SM FG VV001
     FM291900 00000KT 2SM BR BKN005
     FM292000 VRB03KT 2SM BR SCT005 BKN200
     FM292100 33005KT 4SM HZ BKN200=



000
FTUS46 KHNX 282025 AAA
TAFMCE
TAF AMD
KMCE 282025Z 2820/2918 VRB03KT 2SM BR BKN003
     FM282100 33005KT 4SM HZ SCT200
     FM290600 VRB03KT 1SM BR FEW001 BKN200=



000
FTUS46 KHNX 281732
TAFBFL
TAF
KBFL 281732Z 2818/2918 VRB03KT 5SM BR SCT040 OVC200
     FM282000 30006KT P6SM BKN200=



000
FTUS46 KHNX 281732
TAFMCE
TAF
KMCE 281732Z 2818/2918 32005KT 1/4SM FG VV002
     FM282000 VRB03KT 2SM BR BKN200
     FM282200 33005KT 4SM HZ BKN200
     FM290600 VRB03KT 1SM BR FEW001 BKN200=



000
FTUS46 KHNX 281732
TAFFAT
TAF
KFAT 281732Z 2818/2918 VRB03KT 1/4SM FG VV002
     FM282000 VRB04KT 3SM HZ BKN200
     FM282200 VRB04KT P6SM BKN200
     FM290600 VRB03KT 3SM BR BKN200=



000
FTUS46 KHNX 281331 AAA
TAFBFL
TAF AMD
KBFL 281331Z 2814/2912 VRB03KT P6SM BKN040
     FM281800 30006KT P6SM SCT040 BKN200=



000
FTUS46 KHNX 281120
TAFMCE
TAF
KMCE 281120Z 2812/2912 00000KT 1/4SM FG VV001
     FM281900 VRB03KT 2SM BR BKN200
     FM282200 33005KT 4SM HZ BKN200
     FM290600 VRB03KT 1SM BR FEW001 BKN200=



000
FTUS46 KHNX 281120
TAFBFL
TAF
KBFL 281120Z 2812/2912 VRB03KT P6SM BKN035
     FM281300 VRB03KT 3SM BR OVC030
     FM281800 30006KT 6SM HZ SCT030 BKN040=



000
FTUS46 KHNX 281120
TAFFAT
TAF
KFAT 281120Z 2812/2912 VRB03KT 1/4SM FG OVC001
     FM281800 VRB04KT 3SM HZ BKN200
     FM282100 VRB04KT P6SM BKN200
     FM290600 VRB03KT 3SM BR BKN200=



000
FTUS46 KHNX 280912 AAA
TAFFAT
TAF AMD
KFAT 280912Z 2809/2906 32003KT 2SM BR SKC
     FM281200 VRB03KT 1/4SM FG OVC001
     FM281900 VRB04KT 3SM HZ BKN200=



000
FTUS46 KHNX 280912 AAA
TAFFAT
TAF AMD
KFAT 280912Z 2809/2906 32003KT 2SM BR SKC
     FM281200 VRB03KT 1/4SM FG OVC001
     FM281900 VRB04KT 3SM HZ BKN200=



000
FTUS46 KHNX 280908 AAA
TAFMCE
TAF AMD
KMCE 280908Z 2809/2906 02004KT 2SM BR SKC
     FM281100 00000KT 1/4SM FG VV001
     FM282000 VRB03KT 2SM BR BKN200
     FM282200 33005KT 4SM HZ BKN200=



000
FTUS46 KHNX 280908 AAA
TAFMCE
TAF AMD
KMCE 280908Z 2809/2906 02004KT 2SM BR SKC
     FM281100 00000KT 1/4SM FG VV001
     FM282000 VRB03KT 2SM BR BKN200
     FM282200 33005KT 4SM HZ BKN200=



000
FTUS46 KHNX 280530
TAFMCE
TAF
KMCE 280530Z 2806/2906 02004KT P6SM OVC100
      TEMPO 2808/2810 2SM BR BKN006
     FM281000 32003KT 2SM BR SKC
      TEMPO 2811/2813 1/2SM FG OVC002
     FM281300 00000KT 1/4SM FG VV001
      TEMPO 2817/2820 1SM BR SCT002
     FM282000 VRB03KT 2SM BR BKN200
     FM282200 33005KT 4SM HZ BKN200=



000
FTUS46 KHNX 280530
TAFFAT
TAF
KFAT 280530Z 2806/2906 32003KT P6SM FEW050 SCT120
      TEMPO 2808/2811 2SM BR BKN006
     FM281100 VRB03KT 2SM BR BKN006
      TEMPO 2813/2817 1/2SM FG BKN003
     FM281900 VRB04KT 5SM HZ BKN200=



000
FTUS46 KHNX 280530
TAFBFL
TAF
KBFL 280530Z 2806/2906 14004KT P6SM BKN030 BKN050
     FM281200 VRB03KT 3SM BR SCT010 OVC030
      TEMPO 2812/2816 2SM BR BKN010
     FM282000 30006KT 5SM HZ SCT030 BKN050=



000
FTUS46 KHNX 272332
TAFMCE
TAF
KMCE 272332Z 2800/2824 32006KT P6SM SCT035 BKN060
      TEMPO 2800/2804 BKN035
     FM280600 32003KT 4SM BR SCT015 BKN035
     FM281000 VRB03KT 1 1/2SM BR BKN003
      TEMPO 2813/2817 3/4SM BR BKN002
     FM281900 VRB04KT 5SM HZ BKN200=



000
FTUS46 KHNX 272332
TAFBFL
TAF
KBFL 272332Z 2800/2824 32006KT P6SM SCT035 BKN070
      TEMPO 2802/2806 BKN070
     FM280600 34004KT P6SM BKN050
     FM281000 VRB03KT 5SM BR BKN035
     FM282000 30006KT 5SM HZ SCT050 BKN200=



000
FTUS46 KHNX 272332
TAFFAT
TAF
KFAT 272332Z 2800/2824 32006KT P6SM SCT035 BKN060
      TEMPO 2800/2804 BKN035
     FM280600 32003KT 4SM BR SCT015 BKN035
     FM281000 VRB03KT 1 1/2SM BR BKN003
      TEMPO 2813/2817 3/4SM BR BKN002
     FM281900 VRB04KT 5SM HZ BKN200=



    US Dept of Commerce
    National Oceanic and Atmospheric Administration
    National Weather Service
    1325 East West Highway
    Silver Spring, MD 20910
    Page Author: NWS Internet Services Team
Disclaimer
Information Quality
Credits
Glossary
Privacy Policy
Freedom of Information Act (FOIA)
About Us
Career Opportunities